Seiyu Maru — JD3189 — position and weather

sailwx.info

Track history (hours):
 
Tides and Currents Weather Stations Pressure Air Temp Water Temp Dewpoint Dewpoint Depression Visibility Wind Speed Wind Dir Waves Ship Positions

Seiyu Maru

Last reported at 2016-Dec-03 13:31 UTC. Time now 2016-Dec-10 09:02 UTC.
Position N 33°56' E 135°01'.

Length 75 m; draft 4.5 m.

Type: Cargo ship. MMSI: 431002433.

Date/timePositionNaut miles runAvg speedWind from/ knotsBaromVisibWave heightAir tempDewpointWater temp
2016-Dec-03 13:31N 33°56' E 135°01'1111.6
2016-Dec-03 12:33N 34°07' E 135°02'1211.0
2016-Dec-03 11:30N 34°19' E 135°04'1111.7
2016-Dec-03 10:32N 34°28' E 135°12'1111.6
2016-Dec-03 09:32N 34°37' E 135°21'3 2.8
2016-Dec-03 08:32N 34°38' E 135°25'0 0.0
2016-Dec-03 07:29N 34°38' E 135°25'0 0.0
2016-Dec-03 06:32N 34°38' E 135°25'0 0.0
2016-Dec-03 05:32N 34°38' E 135°25'0 0.0
2016-Dec-02 04:03N 34°38' E 135°25'2 3.9
2016-Dec-02 03:33N 34°37' E 135°22'7 7.3
2016-Dec-02 02:33N 34°42' E 135°15'0 0.1
2016-Dec-02 01:33N 34°42' E 135°15'0 0.0
2016-Dec-02 00:33N 34°42' E 135°15'0 0.0
2016-Dec-01 23:33N 34°42' E 135°15'1 0.6
2016-Dec-01 22:33N 34°41' E 135°15'3 2.7
2016-Dec-01 21:32N 34°41' E 135°18'0 0.0
2016-Dec-01 20:32N 34°41' E 135°19'0 0.1
2016-Dec-01 19:32N 34°41' E 135°18'0 0.0
2016-Dec-01 18:32N 34°41' E 135°18'0 0.0
2016-Dec-01 17:20N 34°41' E 135°18'0 0.1
2016-Dec-01 16:32N 34°41' E 135°19'0 0.0
2016-Dec-01 15:32N 34°41' E 135°19'0 0.0
2016-Dec-01 14:32N 34°41' E 135°19'0 0.0
2016-Dec-01 13:32N 34°41' E 135°19'0 0.0
2016-Dec-01 12:32N 34°41' E 135°19'0 0.0
2016-Dec-01 11:32N 34°41' E 135°19'0 0.0
2016-Dec-01 10:32N 34°41' E 135°19'0 0.0
2016-Dec-01 09:26N 34°41' E 135°19'3 3.4
2016-Dec-01 08:33N 34°38' E 135°18'1211.4
2016-Dec-01 07:32N 34°35' E 135°05'9 0.6
2016-Nov-30 17:09N 34°35' E 134°54'7 8.4
2016-Nov-30 16:18N 34°37' E 135°02'810.4
2016-Nov-30 15:33N 34°36' E 135°11'1211.5
2016-Nov-30 14:34N 34°39' E 135°25'2 2.0
2016-Nov-30 13:31N 34°38' E 135°27'0 0.0
2016-Nov-30 09:30N 34°38' E 135°27'0 0.3
2016-Nov-30 08:17N 34°38' E 135°27'0 0.1
2016-Nov-30 07:29N 34°38' E 135°27'0 0.0
2016-Nov-30 05:22N 34°38' E 135°27'0 0.0
2016-Nov-30 04:17N 34°38' E 135°27'0 0.1
2016-Nov-30 03:29N 34°38' E 135°27'0 0.0
2016-Nov-30 02:29N 34°38' E 135°27'0 0.0
2016-Nov-30 01:22N 34°38' E 135°27'0 0.0
2016-Nov-30 00:17N 34°38' E 135°27'3 4.0
2016-Nov-29 23:33N 34°38' E 135°23'4 0.2
2016-Nov-28 23:15N 34°35' E 135°27'4 6.4
2016-Nov-28 22:33N 34°38' E 135°23'4 4.2
2016-Nov-28 21:33N 34°39' E 135°28'0 0.0
2016-Nov-28 20:30N 34°39' E 135°28'0 0.0
2016-Nov-28 05:18N 34°39' E 135°28'5 6.5
2016-Nov-28 04:33N 34°37' E 135°22'1110.8
2016-Nov-28 03:33N 34°29' E 135°14'1110.4
2016-Nov-28 02:28N 34°20' E 135°06'9 9.6
2016-Nov-28 01:33N 34°12' E 135°03'  
Track history (hours):
 
Tides and Currents Weather Stations Pressure Air Temp Water Temp Dewpoint Dewpoint Depression Visibility Wind Speed Wind Dir Waves Ship Positions

Seiyu Maru

Last reported at 2016-Dec-03 13:31 UTC. Time now 2016-Dec-10 09:02 UTC.
Position N 33°56' E 135°01'.

Length 75 m; draft 4.5 m.

Type: Cargo ship. MMSI: 431002433.

Date/timePositionNaut miles runAvg speedWind from/ knotsBaromVisibWave heightAir tempDewpointWater temp
2016-Dec-03 13:31N 33°56' E 135°01'1111.6
2016-Dec-03 12:33N 34°07' E 135°02'1211.0
2016-Dec-03 11:30N 34°19' E 135°04'1111.7
2016-Dec-03 10:32N 34°28' E 135°12'1111.6
2016-Dec-03 09:32N 34°37' E 135°21'3 2.8
2016-Dec-03 08:32N 34°38' E 135°25'0 0.0
2016-Dec-03 07:29N 34°38' E 135°25'0 0.0
2016-Dec-03 06:32N 34°38' E 135°25'0 0.0
2016-Dec-03 05:32N 34°38' E 135°25'0 0.0
2016-Dec-02 04:03N 34°38' E 135°25'2 3.9
2016-Dec-02 03:33N 34°37' E 135°22'7 7.3
2016-Dec-02 02:33N 34°42' E 135°15'0 0.1
2016-Dec-02 01:33N 34°42' E 135°15'0 0.0
2016-Dec-02 00:33N 34°42' E 135°15'0 0.0
2016-Dec-01 23:33N 34°42' E 135°15'1 0.6
2016-Dec-01 22:33N 34°41' E 135°15'3 2.7
2016-Dec-01 21:32N 34°41' E 135°18'0 0.0
2016-Dec-01 20:32N 34°41' E 135°19'0 0.1
2016-Dec-01 19:32N 34°41' E 135°18'0 0.0
2016-Dec-01 18:32N 34°41' E 135°18'0 0.0
2016-Dec-01 17:20N 34°41' E 135°18'0 0.1
2016-Dec-01 16:32N 34°41' E 135°19'0 0.0
2016-Dec-01 15:32N 34°41' E 135°19'0 0.0
2016-Dec-01 14:32N 34°41' E 135°19'0 0.0
2016-Dec-01 13:32N 34°41' E 135°19'0 0.0
2016-Dec-01 12:32N 34°41' E 135°19'0 0.0
2016-Dec-01 11:32N 34°41' E 135°19'0 0.0
2016-Dec-01 10:32N 34°41' E 135°19'0 0.0
2016-Dec-01 09:26N 34°41' E 135°19'3 3.4
2016-Dec-01 08:33N 34°38' E 135°18'1211.4
2016-Dec-01 07:32N 34°35' E 135°05'9 0.6
2016-Nov-30 17:09N 34°35' E 134°54'7 8.4
2016-Nov-30 16:18N 34°37' E 135°02'810.4
2016-Nov-30 15:33N 34°36' E 135°11'1211.5
2016-Nov-30 14:34N 34°39' E 135°25'2 2.0
2016-Nov-30 13:31N 34°38' E 135°27'0 0.0
2016-Nov-30 09:30N 34°38' E 135°27'0 0.3
2016-Nov-30 08:17N 34°38' E 135°27'0 0.1
2016-Nov-30 07:29N 34°38' E 135°27'0 0.0
2016-Nov-30 05:22N 34°38' E 135°27'0 0.0
2016-Nov-30 04:17N 34°38' E 135°27'0 0.1
2016-Nov-30 03:29N 34°38' E 135°27'0 0.0
2016-Nov-30 02:29N 34°38' E 135°27'0 0.0
2016-Nov-30 01:22N 34°38' E 135°27'0 0.0
2016-Nov-30 00:17N 34°38' E 135°27'3 4.0
2016-Nov-29 23:33N 34°38' E 135°23'4 0.2
2016-Nov-28 23:15N 34°35' E 135°27'4 6.4
2016-Nov-28 22:33N 34°38' E 135°23'4 4.2
2016-Nov-28 21:33N 34°39' E 135°28'0 0.0
2016-Nov-28 20:30N 34°39' E 135°28'0 0.0
2016-Nov-28 05:18N 34°39' E 135°28'5 6.5
2016-Nov-28 04:33N 34°37' E 135°22'1110.8
2016-Nov-28 03:33N 34°29' E 135°14'1110.4
2016-Nov-28 02:28N 34°20' E 135°06'9 9.6
2016-Nov-28 01:33N 34°12' E 135°03'  

Dump ship's entire track history